sensor_id;sensor_type;location;lat;lon;timestamp;pressure;altitude;pressure_sealevel;temperature;humidity
74529;BME280;63009;52.584;5.932;2022-10-16T00:01:16;101022.44;;;12.55;85.82
74529;BME280;63009;52.584;5.932;2022-10-16T00:03:43;101023.19;;;12.57;86.08
74529;BME280;63009;52.584;5.932;2022-10-16T00:06:10;101018.81;;;12.56;86.06
74529;BME280;63009;52.584;5.932;2022-10-16T00:08:36;101022.44;;;12.55;86.38
74529;BME280;63009;52.584;5.932;2022-10-16T00:11:05;101023.91;;;12.59;85.61
74529;BME280;63009;52.584;5.932;2022-10-16T00:13:31;101019.66;;;12.56;85.58
74529;BME280;63009;52.584;5.932;2022-10-16T00:15:58;101021.06;;;12.62;85.85
74529;BME280;63009;52.584;5.932;2022-10-16T00:18:24;101017.78;;;12.58;85.55
74529;BME280;63009;52.584;5.932;2022-10-16T00:20:50;101016.28;;;12.54;85.70
74529;BME280;63009;52.584;5.932;2022-10-16T00:23:15;101009.91;;;12.57;85.56
74529;BME280;63009;52.584;5.932;2022-10-16T00:25:40;101017.38;;;12.64;85.34
74529;BME280;63009;52.584;5.932;2022-10-16T00:28:06;101010.56;;;12.60;85.22
74529;BME280;63009;52.584;5.932;2022-10-16T00:30:31;101017.47;;;12.63;85.13
74529;BME280;63009;52.584;5.932;2022-10-16T00:32:56;101016.16;;;12.56;85.44
74529;BME280;63009;52.584;5.932;2022-10-16T00:35:21;101016.81;;;12.59;84.95
74529;BME280;63009;52.584;5.932;2022-10-16T00:37:47;101022.66;;;12.64;85.02
74529;BME280;63009;52.584;5.932;2022-10-16T00:40:12;101020.53;;;12.57;84.96
74529;BME280;63009;52.584;5.932;2022-10-16T00:42:38;101023.41;;;12.66;84.72
74529;BME280;63009;52.584;5.932;2022-10-16T00:45:04;101015.97;;;12.59;84.82
74529;BME280;63009;52.584;5.932;2022-10-16T00:47:42;101019.66;;;12.56;84.37
74529;BME280;63009;52.584;5.932;2022-10-16T00:50:11;101015.75;;;12.62;84.49
74529;BME280;63009;52.584;5.932;2022-10-16T00:52:42;101009.28;;;12.53;84.44
74529;BME280;63009;52.584;5.932;2022-10-16T00:55:09;101014.28;;;12.58;84.35
74529;BME280;63009;52.584;5.932;2022-10-16T00:57:35;101011.81;;;12.55;84.41
74529;BME280;63009;52.584;5.932;2022-10-16T01:00:02;101013.75;;;12.65;83.43
74529;BME280;63009;52.584;5.932;2022-10-16T01:02:28;101013.88;;;12.64;83.32
74529;BME280;63009;52.584;5.932;2022-10-16T01:04:53;101006.47;;;12.69;82.92
74529;BME280;63009;52.584;5.932;2022-10-16T01:12:51;101001.22;;;12.82;81.92
74529;BME280;63009;52.584;5.932;2022-10-16T01:16:12;101002.38;;;12.77;82.43
74529;BME280;63009;52.584;5.932;2022-10-16T01:18:29;101011.84;;;12.82;82.31
74529;BME280;63009;52.584;5.932;2022-10-16T01:21:01;101006.91;;;12.75;82.15
74529;BME280;63009;52.584;5.932;2022-10-16T01:23:38;101010.03;;;12.82;82.30
74529;BME280;63009;52.584;5.932;2022-10-16T01:28:51;101008.13;;;12.84;82.21
74529;BME280;63009;52.584;5.932;2022-10-16T01:31:23;101014.28;;;12.85;82.04
74529;BME280;63009;52.584;5.932;2022-10-16T01:33:58;101014.28;;;12.85;82.22
74529;BME280;63009;52.584;5.932;2022-10-16T01:36:30;101014.28;;;12.85;82.18
74529;BME280;63009;52.584;5.932;2022-10-16T01:39:01;101000.03;;;12.73;82.39
74529;BME280;63009;52.584;5.932;2022-10-16T01:41:34;101000.47;;;12.79;82.77
74529;BME280;63009;52.584;5.932;2022-10-16T01:44:29;101009.19;;;12.82;82.46
74529;BME280;63009;52.584;5.932;2022-10-16T01:46:56;100996.69;;;12.84;82.74
74529;BME280;63009;52.584;5.932;2022-10-16T01:49:25;100987.31;;;12.78;82.69
74529;BME280;63009;52.584;5.932;2022-10-16T01:51:55;100987.59;;;12.73;82.86
74529;BME280;63009;52.584;5.932;2022-10-16T01:54:23;100993.34;;;12.80;83.24
74529;BME280;63009;52.584;5.932;2022-10-16T01:56:50;100988.16;;;12.78;83.56
74529;BME280;63009;52.584;5.932;2022-10-16T01:59:19;100995.47;;;12.75;84.41
74529;BME280;63009;52.584;5.932;2022-10-16T02:01:56;100996.31;;;12.75;84.33
74529;BME280;63009;52.584;5.932;2022-10-16T02:04:33;100996.09;;;12.78;83.84
74529;BME280;63009;52.584;5.932;2022-10-16T02:06:59;100998.00;;;12.76;83.87
74529;BME280;63009;52.584;5.932;2022-10-16T02:09:25;100993.75;;;12.74;84.27
74529;BME280;63009;52.584;5.932;2022-10-16T02:11:53;100989.50;;;12.71;84.60
74529;BME280;63009;52.584;5.932;2022-10-16T02:14:20;101009.88;;;12.71;84.64
74529;BME280;63009;52.584;5.932;2022-10-16T02:16:47;101007.88;;;12.74;84.44
74529;BME280;63009;52.584;5.932;2022-10-16T02:19:13;101005.31;;;12.73;84.74
74529;BME280;63009;52.584;5.932;2022-10-16T02:24:23;100992.38;;;12.68;85.00
74529;BME280;63009;52.584;5.932;2022-10-16T02:27:01;101010.41;;;12.76;84.78
74529;BME280;63009;52.584;5.932;2022-10-16T02:29:27;101015.53;;;12.79;84.65
74529;BME280;63009;52.584;5.932;2022-10-16T02:31:58;101017.91;;;12.84;84.59
74529;BME280;63009;52.584;5.932;2022-10-16T02:34:27;101023.31;;;12.82;84.95
74529;BME280;63009;52.584;5.932;2022-10-16T02:36:56;101023.47;;;12.79;85.05
74529;BME280;63009;52.584;5.932;2022-10-16T02:39:22;101030.78;;;12.75;85.26
74529;BME280;63009;52.584;5.932;2022-10-16T02:41:47;101033.59;;;12.87;84.91
74529;BME280;63009;52.584;5.932;2022-10-16T02:44:13;101027.44;;;12.86;85.22
74529;BME280;63009;52.584;5.932;2022-10-16T02:46:38;101029.59;;;12.94;84.71
74529;BME280;63009;52.584;5.932;2022-10-16T02:49:03;101028.41;;;12.85;84.53
74529;BME280;63009;52.584;5.932;2022-10-16T02:51:28;101027.88;;;12.93;84.79
74529;BME280;63009;52.584;5.932;2022-10-16T02:53:54;101023.75;;;12.89;84.69
74529;BME280;63009;52.584;5.932;2022-10-16T02:56:19;101023.31;;;12.95;84.71
74529;BME280;63009;52.584;5.932;2022-10-16T02:58:45;101032.41;;;13.05;84.73
74529;BME280;63009;52.584;5.932;2022-10-16T03:01:10;101032.28;;;13.06;84.71
74529;BME280;63009;52.584;5.932;2022-10-16T03:03:37;101034.81;;;12.95;84.98
74529;BME280;63009;52.584;5.932;2022-10-16T03:06:03;101030.44;;;12.94;85.33
74529;BME280;63009;52.584;5.932;2022-10-16T03:08:28;101045.91;;;12.88;86.35
74529;BME280;63009;52.584;5.932;2022-10-16T03:10:54;101046.56;;;12.91;85.49
74529;BME280;63009;52.584;5.932;2022-10-16T03:13:19;101050.75;;;12.95;85.52
74529;BME280;63009;52.584;5.932;2022-10-16T03:15:45;101055.09;;;12.96;85.51
74529;BME280;63009;52.584;5.932;2022-10-16T03:18:11;101051.50;;;12.97;85.70
74529;BME280;63009;52.584;5.932;2022-10-16T03:20:36;101056.31;;;12.91;85.67
74529;BME280;63009;52.584;5.932;2022-10-16T03:23:01;101055.41;;;12.77;86.38
74529;BME280;63009;52.584;5.932;2022-10-16T03:25:27;101059.28;;;12.86;86.12
74529;BME280;63009;52.584;5.932;2022-10-16T03:27:53;101061.19;;;12.84;86.06
74529;BME280;63009;52.584;5.932;2022-10-16T03:30:18;101063.09;;;12.82;86.60
74529;BME280;63009;52.584;5.932;2022-10-16T03:32:44;101056.84;;;12.83;86.46
74529;BME280;63009;52.584;5.932;2022-10-16T03:35:09;101055.41;;;12.77;86.56
74529;BME280;63009;52.584;5.932;2022-10-16T03:37:35;101058.84;;;12.65;87.21
74529;BME280;63009;52.584;5.932;2022-10-16T03:40:01;101053.94;;;12.59;87.62
74529;BME280;63009;52.584;5.932;2022-10-16T03:42:26;101055.53;;;12.62;87.32
74529;BME280;63009;52.584;5.932;2022-10-16T03:44:51;101064.94;;;12.53;88.09
74529;BME280;63009;52.584;5.932;2022-10-16T03:47:17;101047.41;;;12.51;88.08
74529;BME280;63009;52.584;5.932;2022-10-16T03:49:46;101059.81;;;12.50;88.26
74529;BME280;63009;52.584;5.932;2022-10-16T03:52:11;101061.63;;;12.49;88.12
74529;BME280;63009;52.584;5.932;2022-10-16T03:54:37;101053.56;;;12.37;88.41
74529;BME280;63009;52.584;5.932;2022-10-16T03:57:02;101063.31;;;12.36;88.61
74529;BME280;63009;52.584;5.932;2022-10-16T03:59:27;101070.31;;;12.37;88.22
74529;BME280;63009;52.584;5.932;2022-10-16T04:01:52;101074.78;;;12.37;88.38
74529;BME280;63009;52.584;5.932;2022-10-16T04:04:18;101080.75;;;12.40;88.23
74529;BME280;63009;52.584;5.932;2022-10-16T04:06:43;101091.47;;;12.39;88.59
74529;BME280;63009;52.584;5.932;2022-10-16T04:09:08;101084.38;;;12.39;88.95
74529;BME280;63009;52.584;5.932;2022-10-16T04:11:33;101092.78;;;12.32;89.46
74529;BME280;63009;52.584;5.932;2022-10-16T04:13:59;101093.91;;;12.28;89.45
74529;BME280;63009;52.584;5.932;2022-10-16T04:16:24;101105.56;;;12.39;89.37
74529;BME280;63009;52.584;5.932;2022-10-16T04:18:49;101100.25;;;12.25;89.90
74529;BME280;63009;52.584;5.932;2022-10-16T04:21:15;101103.56;;;12.29;89.70
74529;BME280;63009;52.584;5.932;2022-10-16T04:23:40;101108.78;;;12.30;89.81
74529;BME280;63009;52.584;5.932;2022-10-16T04:26:06;101111.72;;;12.26;90.21
74529;BME280;63009;52.584;5.932;2022-10-16T04:28:32;101097.03;;;12.20;90.28
74529;BME280;63009;52.584;5.932;2022-10-16T04:30:57;101108.22;;;12.25;90.28
74529;BME280;63009;52.584;5.932;2022-10-16T04:33:22;101112.47;;;12.28;89.87
74529;BME280;63009;52.584;5.932;2022-10-16T04:35:48;101116.22;;;12.24;90.61
74529;BME280;63009;52.584;5.932;2022-10-16T04:38:13;101123.06;;;12.28;89.93
74529;BME280;63009;52.584;5.932;2022-10-16T04:40:38;101122.22;;;12.27;90.02
74529;BME280;63009;52.584;5.932;2022-10-16T04:43:04;101121.16;;;12.30;89.97
74529;BME280;63009;52.584;5.932;2022-10-16T04:45:29;101125.91;;;12.25;90.36
74529;BME280;63009;52.584;5.932;2022-10-16T04:47:58;101126.47;;;12.30;90.35
74529;BME280;63009;52.584;5.932;2022-10-16T04:50:24;101132.34;;;12.35;90.06
74529;BME280;63009;52.584;5.932;2022-10-16T04:52:49;101124.19;;;12.24;90.02
74529;BME280;63009;52.584;5.932;2022-10-16T04:55:15;101139.06;;;12.26;90.40
74529;BME280;63009;52.584;5.932;2022-10-16T04:57:40;101134.03;;;12.22;90.43
74529;BME280;63009;52.584;5.932;2022-10-16T05:00:06;101135.81;;;12.21;90.38
74529;BME280;63009;52.584;5.932;2022-10-16T05:02:33;101149.75;;;12.25;90.69
74529;BME280;63009;52.584;5.932;2022-10-16T05:04:58;101145.97;;;12.29;90.46
74529;BME280;63009;52.584;5.932;2022-10-16T05:07:23;101156.81;;;12.24;90.51
74529;BME280;63009;52.584;5.932;2022-10-16T05:09:48;101164.41;;;12.16;91.24
74529;BME280;63009;52.584;5.932;2022-10-16T05:12:14;101150.31;;;12.15;90.98
74529;BME280;63009;52.584;5.932;2022-10-16T05:14:39;101154.75;;;12.15;90.97
74529;BME280;63009;52.584;5.932;2022-10-16T05:17:04;101155.88;;;12.11;90.84
74529;BME280;63009;52.584;5.932;2022-10-16T05:19:29;101154.75;;;12.15;90.65
74529;BME280;63009;52.584;5.932;2022-10-16T05:21:55;101154.00;;;12.13;90.71
74529;BME280;63009;52.584;5.932;2022-10-16T05:24:21;101151.03;;;12.03;90.95
74529;BME280;63009;52.584;5.932;2022-10-16T05:26:46;101158.97;;;12.03;90.91
74529;BME280;63009;52.584;5.932;2022-10-16T05:29:12;101165.97;;;12.04;91.05
74529;BME280;63009;52.584;5.932;2022-10-16T05:31:37;101174.13;;;12.01;91.22
74529;BME280;63009;52.584;5.932;2022-10-16T05:34:02;101175.91;;;12.01;91.56
74529;BME280;63009;52.584;5.932;2022-10-16T05:36:28;101178.75;;;11.98;91.32
74529;BME280;63009;52.584;5.932;2022-10-16T05:38:53;101184.19;;;11.95;91.87
74529;BME280;63009;52.584;5.932;2022-10-16T05:41:19;101178.25;;;11.91;91.81
74529;BME280;63009;52.584;5.932;2022-10-16T05:43:48;101176.94;;;11.98;91.97
74529;BME280;63009;52.584;5.932;2022-10-16T05:46:14;101191.06;;;11.99;92.10
74529;BME280;63009;52.584;5.932;2022-10-16T05:48:40;101182.16;;;12.00;91.92
74529;BME280;63009;52.584;5.932;2022-10-16T05:51:07;101191.53;;;12.05;91.73
74529;BME280;63009;52.584;5.932;2022-10-16T05:53:35;101197.69;;;12.06;91.56
74529;BME280;63009;52.584;5.932;2022-10-16T05:56:01;101191.84;;;12.15;91.34
74529;BME280;63009;52.584;5.932;2022-10-16T05:58:32;101204.81;;;12.19;91.40
74529;BME280;63009;52.584;5.932;2022-10-16T06:01:00;101208.31;;;12.20;91.09
74529;BME280;63009;52.584;5.932;2022-10-16T06:03:26;101212.84;;;12.18;91.48
74529;BME280;63009;52.584;5.932;2022-10-16T06:05:51;101216.06;;;12.23;91.28
74529;BME280;63009;52.584;5.932;2022-10-16T06:08:18;101219.41;;;12.27;90.91
74529;BME280;63009;52.584;5.932;2022-10-16T06:10:44;101209.34;;;12.17;91.34
74529;BME280;63009;52.584;5.932;2022-10-16T06:13:10;101211.06;;;12.18;91.42
74529;BME280;63009;52.584;5.932;2022-10-16T06:15:37;101207.38;;;12.21;91.56
74529;BME280;63009;52.584;5.932;2022-10-16T06:18:04;101196.09;;;12.17;91.22
74529;BME280;63009;52.584;5.932;2022-10-16T06:20:29;101205.56;;;12.22;91.61
74529;BME280;63009;52.584;5.932;2022-10-16T06:22:54;101217.97;;;12.21;91.54
74529;BME280;63009;52.584;5.932;2022-10-16T06:25:20;101224.13;;;12.22;91.52
74529;BME280;63009;52.584;5.932;2022-10-16T06:27:45;101217.78;;;12.24;91.48
74529;BME280;63009;52.584;5.932;2022-10-16T06:30:10;101219.13;;;12.31;91.13
74529;BME280;63009;52.584;5.932;2022-10-16T06:32:35;101231.16;;;12.37;91.04
74529;BME280;63009;52.584;5.932;2022-10-16T06:35:01;101247.66;;;12.42;91.15
74529;BME280;63009;52.584;5.932;2022-10-16T06:37:26;101240.38;;;12.45;91.03
74529;BME280;63009;52.584;5.932;2022-10-16T06:39:52;101245.78;;;12.44;90.80
74529;BME280;63009;52.584;5.932;2022-10-16T06:42:18;101257.69;;;12.51;91.26
74529;BME280;63009;52.584;5.932;2022-10-16T06:44:43;101251.53;;;12.51;90.96
74529;BME280;63009;52.584;5.932;2022-10-16T06:47:08;101260.94;;;12.56;90.88
74529;BME280;63009;52.584;5.932;2022-10-16T06:49:34;101262.28;;;12.63;90.18
74529;BME280;63009;52.584;5.932;2022-10-16T06:51:59;101260.94;;;12.56;90.83
74529;BME280;63009;52.584;5.932;2022-10-16T06:54:24;101246.34;;;12.63;90.30
74529;BME280;63009;52.584;5.932;2022-10-16T06:56:50;101258.41;;;12.69;90.05
74529;BME280;63009;52.584;5.932;2022-10-16T06:59:16;101248.66;;;12.69;89.62
74529;BME280;63009;52.584;5.932;2022-10-16T07:01:41;101260.78;;;12.73;89.33
74529;BME280;63009;52.584;5.932;2022-10-16T07:04:06;101242.78;;;12.78;89.08
74529;BME280;63009;52.584;5.932;2022-10-16T07:06:33;101249.97;;;12.76;88.79
74529;BME280;63009;52.584;5.932;2022-10-16T07:09:01;101254.53;;;12.89;87.98
74529;BME280;63009;52.584;5.932;2022-10-16T07:11:26;101252.84;;;12.88;88.56
74529;BME280;63009;52.584;5.932;2022-10-16T07:13:52;101253.59;;;12.90;88.39
74529;BME280;63009;52.584;5.932;2022-10-16T07:16:19;101273.88;;;12.91;88.21
74529;BME280;63009;52.584;5.932;2022-10-16T07:18:45;101281.81;;;12.91;88.02
74529;BME280;63009;52.584;5.932;2022-10-16T07:21:19;101283.53;;;12.92;88.53
74529;BME280;63009;52.584;5.932;2022-10-16T07:23:50;101287.78;;;12.94;88.68
74529;BME280;63009;52.584;5.932;2022-10-16T07:26:15;101298.25;;;12.97;88.82
74529;BME280;63009;52.584;5.932;2022-10-16T07:28:42;101296.69;;;12.93;88.28
74529;BME280;63009;52.584;5.932;2022-10-16T07:31:10;101315.56;;;13.03;88.96
74529;BME280;63009;52.584;5.932;2022-10-16T07:33:37;101321.72;;;13.03;89.37
74529;BME280;63009;52.584;5.932;2022-10-16T07:36:03;101334.03;;;13.04;89.57
74529;BME280;63009;52.584;5.932;2022-10-16T07:38:28;101333.94;;;13.06;89.80
74529;BME280;63009;52.584;5.932;2022-10-16T07:41:00;101348.81;;;13.08;90.24
74529;BME280;63009;52.584;5.932;2022-10-16T07:43:26;101348.66;;;13.12;89.85
74529;BME280;63009;52.584;5.932;2022-10-16T07:45:52;101348.03;;;13.22;88.94
74529;BME280;63009;52.584;5.932;2022-10-16T07:48:18;101362.06;;;13.24;89.34
74529;BME280;63009;52.584;5.932;2022-10-16T07:50:44;101356.56;;;13.27;88.89
74529;BME280;63009;52.584;5.932;2022-10-16T07:53:11;101370.50;;;13.31;88.73
74529;BME280;63009;52.584;5.932;2022-10-16T07:55:36;101371.75;;;13.40;88.73
74529;BME280;63009;52.584;5.932;2022-10-16T07:58:02;101370.69;;;13.56;87.50
74529;BME280;63009;52.584;5.932;2022-10-16T08:00:27;101371.25;;;13.61;86.71
74529;BME280;63009;52.584;5.932;2022-10-16T08:02:53;101385.03;;;13.68;86.52
74529;BME280;63009;52.584;5.932;2022-10-16T08:05:18;101389.00;;;13.75;86.32
74529;BME280;63009;52.584;5.932;2022-10-16T08:07:48;101405.13;;;13.72;85.68
74529;BME280;63009;52.584;5.932;2022-10-16T08:10:18;101397.81;;;13.76;85.91
74529;BME280;63009;52.584;5.932;2022-10-16T08:12:44;101408.91;;;13.82;85.56
74529;BME280;63009;52.584;5.932;2022-10-16T08:15:10;101407.56;;;13.89;85.40
74529;BME280;63009;52.584;5.932;2022-10-16T08:17:35;101410.19;;;14.04;85.05
74529;BME280;63009;52.584;5.932;2022-10-16T08:20:01;101418.47;;;13.99;83.69
74529;BME280;63009;52.584;5.932;2022-10-16T08:22:26;101410.19;;;14.04;83.44
74529;BME280;63009;52.584;5.932;2022-10-16T08:24:52;101412.28;;;14.13;82.75
74529;BME280;63009;52.584;5.932;2022-10-16T08:27:17;101411.75;;;14.35;81.29
74529;BME280;63009;52.584;5.932;2022-10-16T08:29:42;101416.97;;;14.63;79.99
74529;BME280;63009;52.584;5.932;2022-10-16T08:32:08;101416.91;;;14.77;79.33
74529;BME280;63009;52.584;5.932;2022-10-16T08:34:33;101415.72;;;14.96;79.13
74529;BME280;63009;52.584;5.932;2022-10-16T08:36:58;101424.03;;;15.17;77.57
74529;BME280;63009;52.584;5.932;2022-10-16T08:39:23;101412.53;;;15.29;77.24
74529;BME280;63009;52.584;5.932;2022-10-16T08:50:16;101437.63;;;15.64;76.34
74529;BME280;63009;52.584;5.932;2022-10-16T08:52:44;101432.06;;;15.80;75.59
74529;BME280;63009;52.584;5.932;2022-10-16T08:55:43;101445.66;;;16.01;74.81
74529;BME280;63009;52.584;5.932;2022-10-16T08:58:15;101461.03;;;16.10;74.09
74529;BME280;63009;52.584;5.932;2022-10-16T09:00:44;101458.56;;;16.20;74.36
74529;BME280;63009;52.584;5.932;2022-10-16T09:03:31;101464.94;;;16.17;74.15
74529;BME280;63009;52.584;5.932;2022-10-16T09:06:10;101462.97;;;16.32;73.27
74529;BME280;63009;52.584;5.932;2022-10-16T09:17:46;101490.19;;;16.74;72.23
74529;BME280;63009;52.584;5.932;2022-10-16T09:23:10;101501.50;;;17.01;71.84
74529;BME280;63009;52.584;5.932;2022-10-16T09:25:39;101501.72;;;17.22;70.52
74529;BME280;63009;52.584;5.932;2022-10-16T09:28:04;101505.28;;;17.34;71.64
74529;BME280;63009;52.584;5.932;2022-10-16T09:30:30;101511.03;;;17.51;71.86
74529;BME280;63009;52.584;5.932;2022-10-16T09:32:57;101510.53;;;17.58;70.80
74529;BME280;63009;52.584;5.932;2022-10-16T09:35:35;101526.28;;;17.38;70.95
74529;BME280;63009;52.584;5.932;2022-10-16T09:38:01;101532.00;;;17.34;70.15
74529;BME280;63009;52.584;5.932;2022-10-16T09:40:30;101528.38;;;17.46;71.39
74529;BME280;63009;52.584;5.932;2022-10-16T09:43:15;101536.00;;;17.39;70.49
74529;BME280;63009;52.584;5.932;2022-10-16T09:46:00;101516.75;;;17.23;70.54
74529;BME280;63009;52.584;5.932;2022-10-16T09:48:31;101524.44;;;17.28;71.94
74529;BME280;63009;52.584;5.932;2022-10-16T09:51:01;101529.81;;;17.39;71.89
74529;BME280;63009;52.584;5.932;2022-10-16T09:53:38;101539.94;;;17.58;71.15
74529;BME280;63009;52.584;5.932;2022-10-16T09:56:04;101532.16;;;17.55;70.45
74529;BME280;63009;52.584;5.932;2022-10-16T09:58:31;101535.13;;;17.63;70.24
74529;BME280;63009;52.584;5.932;2022-10-16T10:00:58;101540.22;;;17.66;70.48
74529;BME280;63009;52.584;5.932;2022-10-16T10:03:35;101538.41;;;17.31;71.02
74529;BME280;63009;52.584;5.932;2022-10-16T10:06:14;101533.81;;;17.33;71.47
74529;BME280;63009;52.584;5.932;2022-10-16T10:09:37;101542.69;;;17.45;71.34
74529;BME280;63009;52.584;5.932;2022-10-16T10:11:39;101547.22;;;17.56;71.69
74529;BME280;63009;52.584;5.932;2022-10-16T10:14:09;101551.69;;;17.44;71.11
74529;BME280;63009;52.584;5.932;2022-10-16T10:16:39;101547.19;;;17.33;70.58
74529;BME280;63009;52.584;5.932;2022-10-16T10:19:13;101551.44;;;17.12;72.24
74529;BME280;63009;52.584;5.932;2022-10-16T10:21:39;101557.94;;;17.20;71.82
74529;BME280;63009;52.584;5.932;2022-10-16T10:24:04;101565.59;;;17.01;71.54
74529;BME280;63009;52.584;5.932;2022-10-16T10:26:31;101560.81;;;16.94;70.96
74529;BME280;63009;52.584;5.932;2022-10-16T10:31:39;101576.56;;;17.09;69.55
74529;BME280;63009;52.584;5.932;2022-10-16T10:37:29;101575.34;;;17.61;70.19
74529;BME280;63009;52.584;5.932;2022-10-16T10:39:51;101573.78;;;17.70;67.46
74529;BME280;63009;52.584;5.932;2022-10-16T10:42:40;101580.63;;;17.85;66.58
74529;BME280;63009;52.584;5.932;2022-10-16T10:45:28;101586.50;;;17.66;66.81
74529;BME280;63009;52.584;5.932;2022-10-16T10:51:28;101595.34;;;17.79;65.94
74529;BME280;63009;52.584;5.932;2022-10-16T10:56:50;101597.56;;;17.97;65.98
74529;BME280;63009;52.584;5.932;2022-10-16T10:59:47;101601.59;;;18.02;65.80
74529;BME280;63009;52.584;5.932;2022-10-16T11:02:23;101603.78;;;18.08;66.34
74529;BME280;63009;52.584;5.932;2022-10-16T11:07:44;101615.00;;;18.25;64.56
74529;BME280;63009;52.584;5.932;2022-10-16T11:12:42;101624.53;;;17.94;64.04
74529;BME280;63009;52.584;5.932;2022-10-16T11:15:20;101619.75;;;17.75;64.38
74529;BME280;63009;52.584;5.932;2022-10-16T11:17:52;101617.22;;;17.85;64.04
74529;BME280;63009;52.584;5.932;2022-10-16T11:20:24;101619.84;;;17.73;66.28
74529;BME280;63009;52.584;5.932;2022-10-16T11:25:30;101626.84;;;17.63;65.11
74529;BME280;63009;52.584;5.932;2022-10-16T11:28:03;101630.25;;;17.65;65.18
74529;BME280;63009;52.584;5.932;2022-10-16T11:30:40;101628.00;;;17.72;67.38
74529;BME280;63009;52.584;5.932;2022-10-16T11:35:47;101623.22;;;17.64;65.31
74529;BME280;63009;52.584;5.932;2022-10-16T11:38:29;101634.81;;;17.52;65.48
74529;BME280;63009;52.584;5.932;2022-10-16T11:41:00;101626.56;;;17.55;65.64
74529;BME280;63009;52.584;5.932;2022-10-16T11:43:33;101638.94;;;17.69;66.74
74529;BME280;63009;52.584;5.932;2022-10-16T11:46:08;101632.72;;;17.68;65.69
74529;BME280;63009;52.584;5.932;2022-10-16T11:48:39;101634.53;;;17.68;65.88
74529;BME280;63009;52.584;5.932;2022-10-16T11:51:14;101637.50;;;17.52;65.75
74529;BME280;63009;52.584;5.932;2022-10-16T11:56:13;101643.47;;;17.79;65.89
74529;BME280;63009;52.584;5.932;2022-10-16T11:58:59;101649.22;;;17.97;64.86
74529;BME280;63009;52.584;5.932;2022-10-16T12:01:38;101647.94;;;18.14;64.07
74529;BME280;63009;52.584;5.932;2022-10-16T12:04:17;101651.59;;;18.24;63.81
74529;BME280;63009;52.584;5.932;2022-10-16T12:06:59;101641.03;;;18.23;62.14
74529;BME280;63009;52.584;5.932;2022-10-16T12:09:30;101638.84;;;18.17;63.02
74529;BME280;63009;52.584;5.932;2022-10-16T12:11:56;101649.16;;;18.10;62.32
74529;BME280;63009;52.584;5.932;2022-10-16T12:16:58;101658.69;;;18.36;62.31
74529;BME280;63009;52.584;5.932;2022-10-16T12:19:26;101656.22;;;18.22;63.47
74529;BME280;63009;52.584;5.932;2022-10-16T12:21:56;101672.59;;;18.06;62.74
74529;BME280;63009;52.584;5.932;2022-10-16T12:24:30;101651.34;;;18.05;63.91
74529;BME280;63009;52.584;5.932;2022-10-16T12:26:56;101651.72;;;18.23;63.09
74529;BME280;63009;52.584;5.932;2022-10-16T12:29:41;101661.19;;;18.16;64.35
74529;BME280;63009;52.584;5.932;2022-10-16T12:32:33;101668.06;;;17.96;62.50
74529;BME280;63009;52.584;5.932;2022-10-16T12:35:03;101666.72;;;17.90;63.11
74529;BME280;63009;52.584;5.932;2022-10-16T12:37:33;101669.31;;;18.03;63.21
74529;BME280;63009;52.584;5.932;2022-10-16T12:39:59;101671.53;;;18.09;63.48
74529;BME280;63009;52.584;5.932;2022-10-16T12:42:36;101673.09;;;18.12;60.75
74529;BME280;63009;52.584;5.932;2022-10-16T12:45:22;101665.03;;;17.89;60.80
74529;BME280;63009;52.584;5.932;2022-10-16T12:47:51;101683.88;;;17.99;61.03
74529;BME280;63009;52.584;5.932;2022-10-16T12:52:56;101687.09;;;17.80;61.67
74529;BME280;63009;52.584;5.932;2022-10-16T12:55:22;101689.34;;;17.97;61.32
74529;BME280;63009;52.584;5.932;2022-10-16T12:58:03;101696.81;;;18.05;61.60
74529;BME280;63009;52.584;5.932;2022-10-16T13:00:44;101696.06;;;18.03;62.37
74529;BME280;63009;52.584;5.932;2022-10-16T13:09:00;101694.22;;;17.92;60.86
74529;BME280;63009;52.584;5.932;2022-10-16T13:22:08;101704.97;;;18.15;61.27
74529;BME280;63009;52.584;5.932;2022-10-16T13:27:44;101702.44;;;18.24;61.58
74529;BME280;63009;52.584;5.932;2022-10-16T13:30:20;101702.94;;;18.18;57.90
74529;BME280;63009;52.584;5.932;2022-10-16T13:33:11;101718.91;;;17.96;59.49
74529;BME280;63009;52.584;5.932;2022-10-16T13:35:49;101714.16;;;17.99;60.54
74529;BME280;63009;52.584;5.932;2022-10-16T13:38:18;101717.94;;;17.97;60.45
74529;BME280;63009;52.584;5.932;2022-10-16T13:43:22;101702.13;;;17.94;61.19
74529;BME280;63009;52.584;5.932;2022-10-16T13:45:56;101721.94;;;17.91;60.37
74529;BME280;63009;52.584;5.932;2022-10-16T13:48:22;101724.78;;;17.77;60.83
74529;BME280;63009;52.584;5.932;2022-10-16T13:51:01;101715.06;;;17.76;62.22
74529;BME280;63009;52.584;5.932;2022-10-16T13:53:30;101731.09;;;17.76;60.97
74529;BME280;63009;52.584;5.932;2022-10-16T13:55:56;101726.06;;;17.71;60.72
74529;BME280;63009;52.584;5.932;2022-10-16T13:58:21;101725.25;;;17.58;61.17
74529;BME280;63009;52.584;5.932;2022-10-16T14:01:04;101725.81;;;17.50;61.16
74529;BME280;63009;52.584;5.932;2022-10-16T14:03:31;101738.84;;;17.55;62.08
74529;BME280;63009;52.584;5.932;2022-10-16T14:06:03;101733.34;;;17.45;60.28
74529;BME280;63009;52.584;5.932;2022-10-16T14:08:30;101740.88;;;17.51;62.30
74529;BME280;63009;52.584;5.932;2022-10-16T14:10:58;101738.25;;;17.39;61.05
74529;BME280;63009;52.584;5.932;2022-10-16T14:13:47;101760.94;;;17.33;61.02
74529;BME280;63009;52.584;5.932;2022-10-16T14:16:21;101745.91;;;17.19;61.44
74529;BME280;63009;52.584;5.932;2022-10-16T14:18:57;101757.00;;;17.26;62.26
74529;BME280;63009;52.584;5.932;2022-10-16T14:21:23;101760.41;;;17.28;61.75
74529;BME280;63009;52.584;5.932;2022-10-16T14:23:48;101756.03;;;17.27;62.45